Chiriaco Summit, California
Current Conditions -  °F | °C
As of 5:52 PM on Friday 24 Oct 2014 (Local Time) from KTRM Reporting Station
Clear Clear  
Wind Chill: 84°   Ceiling: Unl
Heat Index: 84°   Visibility: 10mi
Dew Point: 50°   Wind: 0mph
Humidity: 31%   Direction: NA
Pressure: 29.84"   Gusts: NA
Location:  33.7269°N, 116.236°W
Report Text: KTRM 250052Z AUTO 00000KT 10SM CLR 29/10 A2984 RMK AO2 SLP107 T02890100 TSNO
Loading
Personal Weather Stations






























Interactive Weather Map
Tropical Storm Tracking
New forecast layout! Learn more

10-Day Weather Forecast

Advertisements
Track Severe Weather on mobile